Time;durP1;ratioP1;P1;durP2;ratioP2;P2;SDS_P1;SDS_P2;PMS_P1;PMS_P2;Temp;Humidity;BMP_temperature;BMP_pressure;BME280_temperature;BME280_humidity;BME280_pressure;Samples;Min_cycle;Max_cycle;Signal;HPM_P1;HPM_P2
2021/11/23 00:33:17;;;;;;;1.20;1.10;;;;;;;;;;4673532;29;20226;-81
2021/11/23 00:43:04;;;;;;;0.10;0.10;;;;;;;;;;4767176;29;20250;-81
2021/11/23 02:01:19;;;;;;;;;;;;;;;;;;;;;
2021/11/23 04:37:59;;;;;;;;;;;;;;;;;;;;;
2021/11/23 06:06:10;;;;;;;0.40;0.40;;;;;;;;;;4834853;28;20628;-81
2021/11/23 07:06:28;;;;;;;0.10;0.10;;;;;;;;;;4831257;28;20684;-81
2021/11/23 08:04:13;;;;;;;1.38;0.90;;;;;;;;;;4841107;28;20175;-81
2021/11/23 08:49:56;;;;;;;;;;;;;;;;;;;;;
2021/11/23 09:06:41;;;;;;;0.20;0.20;;;;;;;;;;4756357;29;20392;-82
2021/11/23 11:34:17;;;;;;;0.70;0.70;;;;;;;;;;4763150;29;20240;-82
2021/11/23 12:38:25;;;;;;;0.40;0.32;;;;;;;;;;4845019;28;20188;-80
2021/11/23 12:52:06;;;;;;;0.63;0.63;;;;;;;;;;4768004;29;20310;-80
2021/11/23 12:58:42;;;;;;;0.28;0.28;;;;;;;;;;4804585;29;20383;-80
2021/11/23 13:01:52;;;;;;;0.20;0.20;;;;;;;;;;4788557;29;20244;-80
2021/11/23 13:32:09;;;;;;;;;;;;;;;;;;;;;
2021/11/23 14:11:04;;;;;;;0.10;0.10;;;;;;;;;;4815498;28;20184;-82
2021/11/23 14:27:52;;;;;;;1.05;1.00;;;;;;;;;;4815405;28;20589;-82
2021/11/23 14:40:54;;;;;;;0.10;0.10;;;;;;;;;;4815522;28;20208;-81
2021/11/23 15:01:01;;;;;;;0.10;0.10;;;;;;;;;;4775148;29;20285;-81
2021/11/23 15:14:22;;;;;;;1.27;0.75;;;;;;;;;;4759812;29;20581;-81
2021/11/23 15:41:32;;;;;;;1.17;1.08;;;;;;;;;;4817454;28;20185;-81
2021/11/23 16:23:00;;;;;;;0.25;0.25;;;;;;;;;;5034263;23;20074;-85
2021/11/23 16:25:26;;;;;;;1.85;1.10;;;;;;;;;;4960093;28;20035;-84
2021/11/23 16:27:51;;;;;;;0.10;0.10;;;;;;;;;;4961000;28;20082;-84
2021/11/23 16:30:18;;;;;;;0.10;0.10;;;;;;;;;;4954518;28;20150;-84
2021/11/23 16:32:44;;;;;;;0.35;0.35;;;;;;;;;;4954441;28;20046;-85
2021/11/23 16:35:10;;;;;;;0.25;0.25;;;;;;;;;;4954193;28;20035;-85
2021/11/23 16:37:35;;;;;;;0.00;0.00;;;;;;;;;;4954195;28;20073;-84
2021/11/23 16:40:01;;;;;;;0.10;0.10;;;;;;;;;;4954614;28;20046;-85
2021/11/23 16:42:26;;;;;;;0.10;0.10;;;;;;;;;;4953610;28;20035;-84
2021/11/23 16:44:52;;;;;;;0.10;0.10;;;;;;;;;;4953570;29;20030;-84
2021/11/23 16:47:18;;;;;;;0.28;0.28;;;;;;;;;;4954580;28;20503;-84
2021/11/23 16:49:44;;;;;;;0.20;0.20;;;;;;;;;;4954358;28;20034;-85
2021/11/23 16:52:10;;;;;;;0.10;0.10;;;;;;;;;;4954814;28;20023;-84
2021/11/23 16:54:36;;;;;;;0.05;0.05;;;;;;;;;;4954613;28;20031;-84
2021/11/23 16:57:02;;;;;;;0.10;0.10;;;;;;;;;;4954130;28;20443;-85
2021/11/23 16:59:27;;;;;;;0.10;0.10;;;;;;;;;;4969323;28;20106;-84
2021/11/23 17:01:53;;;;;;;0.10;0.10;;;;;;;;;;4972622;28;20113;-84
2021/11/23 17:04:19;;;;;;;0.00;0.00;;;;;;;;;;4951884;29;20517;-84
2021/11/23 17:06:45;;;;;;;0.10;0.10;;;;;;;;;;4954172;28;20023;-84
2021/11/23 17:09:12;;;;;;;0.55;0.55;;;;;;;;;;4953905;28;20485;-85
2021/11/23 17:11:39;;;;;;;0.13;0.13;;;;;;;;;;4953298;28;20031;-84
2021/11/23 17:14:04;;;;;;;0.10;0.10;;;;;;;;;;4953374;28;20019;-84
2021/11/23 17:16:30;;;;;;;0.88;0.88;;;;;;;;;;4953663;28;20082;-85
2021/11/23 17:18:55;;;;;;;0.10;0.10;;;;;;;;;;4953693;28;20455;-84
2021/11/23 17:21:21;;;;;;;1.45;0.90;;;;;;;;;;4953433;28;20039;-84
2021/11/23 17:23:46;;;;;;;0.52;0.52;;;;;;;;;;4970638;28;20055;-84
2021/11/23 17:26:11;;;;;;;0.75;0.73;;;;;;;;;;4972541;28;20030;-84
2021/11/23 17:28:37;;;;;;;0.10;0.10;;;;;;;;;;4972516;28;20026;-81
2021/11/23 17:31:03;;;;;;;0.77;0.77;;;;;;;;;;4972338;28;20114;-82
2021/11/23 17:33:28;;;;;;;0.88;0.88;;;;;;;;;;4972399;28;20174;-81
2021/11/23 17:35:53;;;;;;;0.00;0.00;;;;;;;;;;4973202;28;20034;-84
2021/11/23 17:38:19;;;;;;;0.50;0.50;;;;;;;;;;4974206;28;20031;-84
2021/11/23 17:40:45;;;;;;;0.20;0.20;;;;;;;;;;4968876;28;20406;-84
2021/11/23 17:43:11;;;;;;;0.20;0.20;;;;;;;;;;4974545;28;20110;-84
2021/11/23 17:45:37;;;;;;;0.20;0.20;;;;;;;;;;4970257;28;20062;-84
2021/11/23 17:48:03;;;;;;;1.10;0.80;;;;;;;;;;4970136;28;20080;-94
2021/11/23 17:50:28;;;;;;;0.22;0.22;;;;;;;;;;4966314;28;20046;-82
2021/11/23 17:52:54;;;;;;;0.10;0.10;;;;;;;;;;4973200;28;20552;-84
2021/11/23 17:55:20;;;;;;;0.10;0.10;;;;;;;;;;4973058;28;20490;-84
2021/11/23 17:57:46;;;;;;;1.95;1.30;;;;;;;;;;4973905;28;20029;-84
2021/11/23 18:00:14;;;;;;;0.55;0.55;;;;;;;;;;4973331;28;20046;-84
2021/11/23 18:02:39;;;;;;;0.13;0.13;;;;;;;;;;4973386;28;20033;-84
2021/11/23 18:05:05;;;;;;;0.00;0.00;;;;;;;;;;4973571;28;20023;-84
2021/11/23 18:07:30;;;;;;;0.30;0.30;;;;;;;;;;4972722;28;20030;-84
2021/11/23 18:09:55;;;;;;;0.10;0.10;;;;;;;;;;4973199;28;20436;-86
2021/11/23 18:12:21;;;;;;;0.10;0.10;;;;;;;;;;4972477;28;20475;-84
2021/11/23 18:14:47;;;;;;;0.20;0.20;;;;;;;;;;4972831;28;20047;-83
2021/11/23 18:17:13;;;;;;;0.17;0.17;;;;;;;;;;4972295;28;20137;-83
2021/11/23 18:19:38;;;;;;;0.90;0.90;;;;;;;;;;4973606;28;20109;-83
2021/11/23 18:22:09;;;;;;;0.10;0.10;;;;;;;;;;4972748;28;20059;-82
2021/11/23 18:24:36;;;;;;;0.15;0.15;;;;;;;;;;4973808;28;20118;-82
2021/11/23 18:27:02;;;;;;;0.95;0.95;;;;;;;;;;4973122;28;20022;-83
2021/11/23 18:29:27;;;;;;;0.50;0.40;;;;;;;;;;4973195;28;20509;-83
2021/11/23 18:31:52;;;;;;;0.10;0.10;;;;;;;;;;4973624;28;20050;-82
2021/11/23 18:34:18;;;;;;;0.20;0.20;;;;;;;;;;4973851;28;20112;-82
2021/11/23 18:36:44;;;;;;;0.03;0.03;;;;;;;;;;4985786;28;20752;-83
2021/11/23 18:39:09;;;;;;;0.03;0.03;;;;;;;;;;4993014;28;20062;-83
2021/11/23 18:41:35;;;;;;;0.70;0.70;;;;;;;;;;4992379;28;20030;-83
2021/11/23 18:44:00;;;;;;;1.02;0.80;;;;;;;;;;4992381;28;20045;-84
2021/11/23 18:46:26;;;;;;;1.23;1.13;;;;;;;;;;4995574;28;20030;-83
2021/11/23 18:48:51;;;;;;;0.20;0.20;;;;;;;;;;4992983;28;20037;-84
2021/11/23 18:51:17;;;;;;;1.77;1.00;;;;;;;;;;4968484;28;20394;-84
2021/11/23 18:53:43;;;;;;;0.90;0.40;;;;;;;;;;4996471;28;20120;-84
2021/11/23 18:56:10;;;;;;;0.10;0.10;;;;;;;;;;4996211;28;20022;-84
2021/11/23 18:58:36;;;;;;;0.52;0.52;;;;;;;;;;4969770;28;20024;-84
2021/11/23 19:01:02;;;;;;;0.63;0.45;;;;;;;;;;4957722;28;20043;-85
2021/11/23 19:03:29;;;;;;;0.10;0.10;;;;;;;;;;4957068;28;20019;-85
2021/11/23 19:05:54;;;;;;;0.57;0.57;;;;;;;;;;4957650;28;20027;-85
2021/11/23 19:08:20;;;;;;;0.73;0.68;;;;;;;;;;4957798;28;20046;-85
2021/11/23 19:10:45;;;;;;;1.23;1.15;;;;;;;;;;4957315;28;20024;-84
2021/11/23 19:13:11;;;;;;;0.63;0.50;;;;;;;;;;4957178;28;20023;-85
2021/11/23 19:15:36;;;;;;;0.20;0.20;;;;;;;;;;4957556;28;20070;-83
2021/11/23 19:18:03;;;;;;;2.72;1.70;;;;;;;;;;4957359;28;20055;-83
2021/11/23 19:20:28;;;;;;;0.43;0.40;;;;;;;;;;4957853;28;20054;-84
2021/11/23 19:22:56;;;;;;;0.20;0.20;;;;;;;;;;4994583;28;20759;-83
2021/11/23 19:25:21;;;;;;;1.13;1.00;;;;;;;;;;4995160;28;20478;-84
2021/11/23 19:27:47;;;;;;;0.68;0.68;;;;;;;;;;4996057;28;20129;-84
2021/11/23 19:30:17;;;;;;;0.30;0.30;;;;;;;;;;4969403;28;20486;-85
2021/11/23 19:32:42;;;;;;;2.47;1.90;;;;;;;;;;4975807;28;20113;-84
2021/11/23 19:35:08;;;;;;;0.52;0.52;;;;;;;;;;4975804;28;20130;-84
2021/11/23 19:37:39;;;;;;;0.85;0.85;;;;;;;;;;4976717;28;20039;-84
2021/11/23 19:40:05;;;;;;;0.10;0.10;;;;;;;;;;4976842;28;20089;-84
2021/11/23 19:42:30;;;;;;;0.20;0.20;;;;;;;;;;4971693;28;20823;-85
2021/11/23 19:44:55;;;;;;;0.35;0.35;;;;;;;;;;4961406;28;20128;-84
2021/11/23 19:47:21;;;;;;;0.10;0.10;;;;;;;;;;4976244;28;20035;-84
2021/11/23 19:49:46;;;;;;;0.15;0.15;;;;;;;;;;4961840;28;20078;-85
2021/11/23 19:52:12;;;;;;;0.10;0.10;;;;;;;;;;4956701;28;20094;-85
2021/11/23 19:54:41;;;;;;;0.05;0.05;;;;;;;;;;4956787;28;20024;-84
2021/11/23 19:57:07;;;;;;;1.17;1.02;;;;;;;;;;4956836;28;20042;-86
2021/11/23 19:59:32;;;;;;;0.13;0.13;;;;;;;;;;4957012;28;20031;-86
2021/11/23 20:01:57;;;;;;;0.13;0.13;;;;;;;;;;4956686;28;20038;-86
2021/11/23 20:04:22;;;;;;;0.10;0.10;;;;;;;;;;4956603;28;20034;-84
2021/11/23 20:06:48;;;;;;;0.10;0.10;;;;;;;;;;4956406;28;20042;-84
2021/11/23 20:09:15;;;;;;;0.20;0.20;;;;;;;;;;4956393;28;20463;-84
2021/11/23 20:11:41;;;;;;;0.20;0.20;;;;;;;;;;4956171;28;20027;-84
2021/11/23 20:14:06;;;;;;;0.30;0.30;;;;;;;;;;4955768;28;20090;-84
2021/11/23 20:16:31;;;;;;;1.83;1.45;;;;;;;;;;4956463;28;20455;-84
2021/11/23 20:18:57;;;;;;;7.03;1.45;;;;;;;;;;4956519;28;20035;-84
2021/11/23 20:21:22;;;;;;;0.10;0.10;;;;;;;;;;4956018;29;20047;-84
2021/11/23 20:23:49;;;;;;;6.22;0.63;;;;;;;;;;4974124;28;20055;-83
2021/11/23 20:26:14;;;;;;;0.20;0.20;;;;;;;;;;4978233;28;20026;-84
2021/11/23 20:28:39;;;;;;;0.10;0.10;;;;;;;;;;4986642;28;20026;-84
2021/11/23 20:31:05;;;;;;;0.28;0.28;;;;;;;;;;4975276;28;20463;-83
2021/11/23 20:33:30;;;;;;;0.20;0.20;;;;;;;;;;4974453;28;20039;-84
2021/11/23 20:35:56;;;;;;;1.27;1.20;;;;;;;;;;4973686;28;20045;-83
2021/11/23 20:38:21;;;;;;;1.08;0.68;;;;;;;;;;4974213;28;20019;-84
2021/11/23 20:40:47;;;;;;;0.20;0.20;;;;;;;;;;4975299;28;20046;-83
2021/11/23 20:43:15;;;;;;;0.38;0.38;;;;;;;;;;4956962;28;20499;-83
2021/11/23 20:45:41;;;;;;;0.80;0.73;;;;;;;;;;4974265;28;20458;-83
2021/11/23 20:48:06;;;;;;;0.10;0.10;;;;;;;;;;4974992;28;20050;-84
2021/11/23 20:50:33;;;;;;;0.63;0.60;;;;;;;;;;4974588;28;20035;-83
2021/11/23 20:52:59;;;;;;;0.03;0.03;;;;;;;;;;4974653;28;20018;-83
2021/11/23 20:55:26;;;;;;;0.30;0.30;;;;;;;;;;4974486;28;20081;-83
2021/11/23 20:57:51;;;;;;;0.10;0.10;;;;;;;;;;4974359;28;20031;-83
2021/11/23 21:00:18;;;;;;;0.10;0.10;;;;;;;;;;4974307;28;20113;-83
2021/11/23 21:02:44;;;;;;;0.05;0.05;;;;;;;;;;4974071;28;20038;-84
2021/11/23 21:05:09;;;;;;;0.32;0.32;;;;;;;;;;4974497;28;20085;-83
2021/11/23 21:07:34;;;;;;;0.65;0.65;;;;;;;;;;4973666;28;20034;-84
2021/11/23 21:10:00;;;;;;;0.52;0.52;;;;;;;;;;4974851;28;20038;-82
2021/11/23 21:12:25;;;;;;;7.93;1.55;;;;;;;;;;4973096;28;20114;-83
2021/11/23 21:14:50;;;;;;;0.10;0.10;;;;;;;;;;4974818;28;20023;-82
2021/11/23 21:17:16;;;;;;;1.08;1.00;;;;;;;;;;4953321;28;20101;-82
2021/11/23 21:19:41;;;;;;;0.10;0.10;;;;;;;;;;4953884;29;20035;-82
2021/11/23 21:22:07;;;;;;;0.70;0.70;;;;;;;;;;4963417;28;20050;-83
2021/11/23 21:24:32;;;;;;;0.22;0.22;;;;;;;;;;4974264;28;20038;-83
2021/11/23 21:26:57;;;;;;;0.38;0.38;;;;;;;;;;4973819;28;20034;-83
2021/11/23 21:29:23;;;;;;;0.75;0.75;;;;;;;;;;4971984;28;20481;-83
2021/11/23 21:31:48;;;;;;;0.15;0.15;;;;;;;;;;4953967;29;20118;-83
2021/11/23 21:34:13;;;;;;;0.88;0.57;;;;;;;;;;4954946;28;20058;-84
2021/11/23 21:36:42;;;;;;;0.63;0.63;;;;;;;;;;4953547;29;20053;-83
2021/11/23 21:39:07;;;;;;;0.40;0.40;;;;;;;;;;4955617;28;20427;-83
2021/11/23 21:41:33;;;;;;;0.13;0.13;;;;;;;;;;4973539;28;20533;-82
2021/11/23 21:44:42;;;;;;;0.10;0.10;;;;;;;;;;4974667;28;20054;-82
2021/11/23 21:46:49;;;;;;;0.50;0.50;;;;;;;;;;4965684;28;20066;-83
2021/11/23 21:49:15;;;;;;;0.10;0.10;;;;;;;;;;4973573;28;20380;-83
2021/11/23 21:51:40;;;;;;;0.03;0.03;;;;;;;;;;4973819;28;20037;-84
2021/11/23 21:54:05;;;;;;;0.55;0.55;;;;;;;;;;4973845;28;20023;-83
2021/11/23 21:56:31;;;;;;;0.55;0.55;;;;;;;;;;4973508;28;20118;-84
2021/11/23 21:58:56;;;;;;;0.20;0.20;;;;;;;;;;4973538;28;20042;-83
2021/11/23 22:01:22;;;;;;;0.45;0.45;;;;;;;;;;4974407;28;20027;-84
2021/11/23 22:03:47;;;;;;;0.00;0.00;;;;;;;;;;4973083;28;20658;-84
2021/11/23 22:06:13;;;;;;;0.32;0.32;;;;;;;;;;4974227;28;20137;-84
2021/11/23 22:08:39;;;;;;;0.10;0.10;;;;;;;;;;4973624;28;20022;-83
2021/11/23 22:11:05;;;;;;;0.60;0.60;;;;;;;;;;4972950;28;20050;-83
2021/11/23 22:13:34;;;;;;;0.30;0.10;;;;;;;;;;4973251;28;20133;-83
2021/11/23 22:16:00;;;;;;;0.57;0.57;;;;;;;;;;4973841;28;20061;-83
2021/11/23 22:18:25;;;;;;;0.10;0.10;;;;;;;;;;4974170;28;20035;-83
2021/11/23 22:20:51;;;;;;;0.63;0.63;;;;;;;;;;4972448;28;20454;-83
2021/11/23 22:23:17;;;;;;;0.38;0.38;;;;;;;;;;4973152;28;20046;-83
2021/11/23 22:25:42;;;;;;;0.20;0.20;;;;;;;;;;4973576;28;20039;-82
2021/11/23 22:28:08;;;;;;;0.10;0.10;;;;;;;;;;4973441;28;20054;-82
2021/11/23 22:30:34;;;;;;;0.40;0.40;;;;;;;;;;4973496;28;20371;-82
2021/11/23 22:32:59;;;;;;;0.20;0.20;;;;;;;;;;4973463;28;20039;-82
2021/11/23 22:35:25;;;;;;;0.60;0.60;;;;;;;;;;4974306;28;20033;-82
2021/11/23 22:37:51;;;;;;;0.57;0.57;;;;;;;;;;4974454;28;20030;-82
2021/11/23 22:40:16;;;;;;;1.55;1.45;;;;;;;;;;4974251;28;20039;-82
2021/11/23 22:42:42;;;;;;;3.25;1.75;;;;;;;;;;4973540;28;20438;-82
2021/11/23 22:45:07;;;;;;;0.20;0.20;;;;;;;;;;4973904;28;20027;-82
2021/11/23 22:47:33;;;;;;;0.20;0.20;;;;;;;;;;4956336;28;20402;-83
2021/11/23 22:49:58;;;;;;;0.10;0.10;;;;;;;;;;4973842;28;20038;-82
2021/11/23 22:52:23;;;;;;;0.32;0.32;;;;;;;;;;4973843;28;20023;-83
2021/11/23 22:54:49;;;;;;;0.40;0.40;;;;;;;;;;4974018;28;20406;-82
2021/11/23 22:57:14;;;;;;;0.13;0.13;;;;;;;;;;4973971;28;20031;-82
2021/11/23 22:59:40;;;;;;;0.80;0.80;;;;;;;;;;4973572;28;20055;-82
2021/11/23 23:02:05;;;;;;;0.10;0.10;;;;;;;;;;4973987;28;20030;-82
2021/11/23 23:04:30;;;;;;;0.25;0.25;;;;;;;;;;4973673;28;20395;-82
2021/11/23 23:06:56;;;;;;;0.00;0.00;;;;;;;;;;4973603;28;20022;-82
2021/11/23 23:09:22;;;;;;;0.00;0.00;;;;;;;;;;4973639;28;20035;-82
2021/11/23 23:11:47;;;;;;;0.03;0.03;;;;;;;;;;4973831;28;20121;-82
2021/11/23 23:14:12;;;;;;;0.43;0.28;;;;;;;;;;4974123;28;20050;-82
2021/11/23 23:16:38;;;;;;;0.10;0.10;;;;;;;;;;4973908;28;20122;-81
2021/11/23 23:19:03;;;;;;;0.00;0.00;;;;;;;;;;4973713;28;20470;-82
2021/11/23 23:21:28;;;;;;;0.10;0.10;;;;;;;;;;4973640;28;20361;-82
2021/11/23 23:23:54;;;;;;;0.75;0.57;;;;;;;;;;4973715;28;20383;-82
2021/11/23 23:26:20;;;;;;;0.43;0.30;;;;;;;;;;4973823;28;20368;-82
2021/11/23 23:28:45;;;;;;;0.17;0.17;;;;;;;;;;4973649;28;20022;-82
2021/11/23 23:31:26;;;;;;;0.10;0.10;;;;;;;;;;4974589;28;20082;-82
2021/11/23 23:33:52;;;;;;;0.10;0.10;;;;;;;;;;4977042;28;20063;-83
2021/11/23 23:36:17;;;;;;;0.10;0.10;;;;;;;;;;4977170;28;20030;-83
2021/11/23 23:38:42;;;;;;;0.20;0.20;;;;;;;;;;4976985;28;20027;-82
2021/11/23 23:41:08;;;;;;;0.00;0.00;;;;;;;;;;4976997;28;20031;-82
2021/11/23 23:43:33;;;;;;;0.13;0.13;;;;;;;;;;4976884;28;20046;-83
2021/11/23 23:45:59;;;;;;;0.73;0.73;;;;;;;;;;4976735;28;20034;-82
2021/11/23 23:48:25;;;;;;;0.20;0.20;;;;;;;;;;4976863;28;20026;-83
2021/11/23 23:50:50;;;;;;;0.00;0.00;;;;;;;;;;4976949;28;20039;-83
2021/11/23 23:53:15;;;;;;;1.40;1.30;;;;;;;;;;4976858;28;20041;-83
2021/11/23 23:55:41;;;;;;;1.10;1.10;;;;;;;;;;4976796;28;20023;-83
2021/11/23 23:58:07;;;;;;;1.23;1.20;;;;;;;;;;4976515;28;20046;-83
